Time;durP1;ratioP1;P1;durP2;ratioP2;P2;SDS_P1;SDS_P2;PMS_P1;PMS_P2;Temp;Humidity;BMP_temperature;BMP_pressure;BME280_temperature;BME280_humidity;BME280_pressure;Samples;Min_cycle;Max_cycle;Signal;HPM_P1;HPM_P2
2024/01/20 00:01:14;;;;;;;;;30.00;27.75;;;;;1.74;67.83;102207.19;5118016;27;45369;-82
2024/01/20 00:03:39;;;;;;;;;30.25;26.25;;;;;1.70;67.57;102223.78;5114834;27;45488;-81
2024/01/20 00:06:04;;;;;;;;;34.50;31.25;;;;;1.40;67.92;102202.59;5138179;27;67680;-81
2024/01/20 00:08:30;;;;;;;;;28.75;25.25;;;;;1.32;69.21;102222.63;5138528;27;45374;-80
2024/01/20 00:10:55;;;;;;;;;27.25;24.00;;;;;1.24;68.86;102233.03;5129272;27;45392;-81
2024/01/20 00:13:20;;;;;;;;;26.00;25.00;;;;;1.20;69.49;102223.41;5118397;27;46672;-80
2024/01/20 00:15:46;;;;;;;;;29.75;23.75;;;;;1.13;69.01;102206.75;5116994;27;61343;-80
2024/01/20 00:18:11;;;;;;;;;35.00;24.25;;;;;1.27;68.95;102224.31;5118348;27;45300;-82
2024/01/20 00:20:36;;;;;;;;;32.25;27.25;;;;;1.31;68.71;102232.25;5117495;27;46803;-81
2024/01/20 00:23:02;;;;;;;;;26.25;25.00;;;;;1.37;68.93;102240.16;5118229;27;45285;-81
2024/01/20 00:25:27;;;;;;;;;27.75;21.00;;;;;1.39;68.94;102245.41;5117554;27;45417;-82
2024/01/20 00:27:52;;;;;;;;;37.50;31.75;;;;;1.27;69.48;102229.56;5118255;27;45444;-82
2024/01/20 00:30:18;;;;;;;;;40.00;37.00;;;;;1.26;69.88;102227.81;5116869;27;45499;-80
2024/01/20 00:32:43;;;;;;;;;31.00;24.25;;;;;1.36;68.86;102233.16;5119092;27;45891;-80
2024/01/20 00:35:08;;;;;;;;;27.25;25.75;;;;;1.23;68.99;102223.44;5117507;27;45561;-80
2024/01/20 00:37:36;;;;;;;;;32.25;30.00;;;;;1.22;69.08;102219.06;5119250;27;45391;-81
2024/01/20 00:40:02;;;;;;;;;33.25;27.00;;;;;1.36;69.54;102234.91;5118841;27;45317;-78
2024/01/20 00:42:28;;;;;;;;;29.50;26.50;;;;;1.37;68.95;102218.28;5118738;27;45546;-79
2024/01/20 00:44:53;;;;;;;;;35.00;28.75;;;;;1.45;69.34;102241.09;5109204;27;45361;-81
2024/01/20 00:47:18;;;;;;;;;34.50;30.00;;;;;1.49;68.99;102247.22;5138683;27;45285;-80
2024/01/20 00:49:44;;;;;;;;;36.00;24.25;;;;;1.47;68.32;102244.59;5138679;27;45506;-81
2024/01/20 00:52:09;;;;;;;;;34.25;31.00;;;;;1.52;68.69;102242.00;5117331;27;61295;-81
2024/01/20 00:54:35;;;;;;;;;40.25;33.00;;;;;1.49;68.77;102244.59;5116880;27;45226;-79
2024/01/20 00:57:00;;;;;;;;;35.00;29.50;;;;;1.50;68.74;102248.97;5117987;27;45337;-80
2024/01/20 00:59:25;;;;;;;;;34.75;30.25;;;;;1.52;68.60;102239.38;5118253;27;45235;-81
2024/01/20 01:01:51;;;;;;;;;26.00;24.00;;;;;1.50;68.65;102243.75;5117812;27;46593;-79
2024/01/20 01:04:16;;;;;;;;;28.00;23.00;;;;;1.50;68.15;102237.63;5120635;27;46248;-80
2024/01/20 01:06:41;;;;;;;;;41.25;30.00;;;;;1.58;67.93;102244.69;5128898;27;45429;-80
2024/01/20 01:09:07;;;;;;;;;23.75;21.50;;;;;1.55;68.42;102242.03;5121208;27;46805;-81
2024/01/20 01:11:32;;;;;;;;;28.50;24.00;;;;;1.59;68.86;102253.44;5102550;27;48139;-81
2024/01/20 01:13:57;;;;;;;;;43.00;25.50;;;;;1.53;67.98;102245.50;5121981;27;45228;-80
2024/01/20 01:16:23;;;;;;;;;27.25;21.75;;;;;1.61;68.44;102251.69;5125095;27;45369;-79
2024/01/20 01:18:48;;;;;;;;;34.50;25.75;;;;;1.63;68.07;102239.47;5125596;27;45476;-80
2024/01/20 01:21:13;;;;;;;;;26.50;24.50;;;;;1.56;68.01;102233.28;5120506;27;46028;-79
2024/01/20 01:23:39;;;;;;;;;21.50;21.50;;;;;1.53;68.19;102238.50;5120858;27;45325;-80
2024/01/20 01:26:04;;;;;;;;;30.00;27.25;;;;;1.62;67.45;102254.31;5129064;27;45430;-80
2024/01/20 01:28:30;;;;;;;;;41.50;25.25;;;;;1.60;68.07;102247.31;5121148;27;45460;-81
2024/01/20 01:30:55;;;;;;;;;29.50;24.75;;;;;1.61;67.67;102246.44;5119940;27;46234;-80
2024/01/20 01:33:20;;;;;;;;;26.75;24.50;;;;;1.51;67.80;102235.00;5120674;27;45344;-81
2024/01/20 01:35:46;;;;;;;;;21.25;15.75;;;;;1.52;67.46;102234.13;5120817;27;45358;-81
2024/01/20 01:38:11;;;;;;;;;27.25;20.50;;;;;1.48;68.01;102237.63;5120742;27;45536;-80
2024/01/20 01:40:36;;;;;;;;;25.00;23.50;;;;;1.48;67.93;102235.88;5127152;27;46469;-82
2024/01/20 01:43:02;;;;;;;;;20.75;15.25;;;;;1.60;68.22;102248.19;5141185;27;45309;-81
2024/01/20 01:45:27;;;;;;;;;23.75;23.00;;;;;1.54;67.74;102250.75;5138188;27;45959;-81
2024/01/20 01:47:55;;;;;;;;;29.25;25.25;;;;;1.51;67.79;102253.34;5120891;27;45458;-82
2024/01/20 01:50:21;;;;;;;;;25.00;22.50;;;;;1.63;68.02;102260.44;5120014;27;45629;-80
2024/01/20 01:52:48;;;;;;;;;25.25;23.50;;;;;1.62;67.02;102269.19;5121089;27;45316;-81
2024/01/20 01:55:15;;;;;;;;;26.25;23.25;;;;;1.53;67.65;102264.72;5120184;27;45386;-80
2024/01/20 01:57:42;;;;;;;;;27.50;24.00;;;;;1.44;67.92;102264.69;5141069;27;45467;-79
2024/01/20 02:00:08;;;;;;;;;30.25;20.75;;;;;1.52;68.14;102260.34;5136912;27;45468;-81
2024/01/20 02:02:34;;;;;;;;;29.50;24.00;;;;;1.46;67.86;102236.72;5109791;27;45245;-83
2024/01/20 02:04:59;;;;;;;;;24.00;23.50;;;;;1.54;67.85;102269.09;5141632;27;45272;-81
2024/01/20 02:07:25;;;;;;;;;33.25;26.00;;;;;1.53;67.57;102280.47;5121677;27;45382;-81
2024/01/20 02:09:50;;;;;;;;;30.25;26.75;;;;;1.43;67.79;102268.13;5118287;27;48256;-81
2024/01/20 02:12:16;;;;;;;;;30.75;25.50;;;;;1.48;68.14;102271.69;5120474;27;45245;-81
2024/01/20 02:14:45;;;;;;;;;36.50;29.00;;;;;1.41;68.01;102259.38;5119163;27;45296;-80
2024/01/20 02:17:11;;;;;;;;;27.25;23.50;;;;;1.44;67.89;102269.94;5135431;27;45611;-80
2024/01/20 02:19:40;;;;;;;;;31.75;27.75;;;;;1.45;67.23;102276.91;5120748;27;45702;-81
2024/01/20 02:22:12;;;;;;;;;31.25;26.50;;;;;1.33;67.51;102282.06;5119004;27;45812;-79
2024/01/20 02:24:39;;;;;;;;;28.75;28.75;;;;;1.35;67.93;102280.31;5119985;27;45354;-80
2024/01/20 02:27:05;;;;;;;;;28.00;22.75;;;;;1.37;67.97;102284.72;5119349;27;45172;-80
2024/01/20 02:29:30;;;;;;;;;30.25;25.50;;;;;0.98;68.20;102286.94;5101210;27;46069;-81
2024/01/20 02:31:55;;;;;;;;;33.25;28.50;;;;;0.85;68.50;102283.31;5119212;27;45466;-80
2024/01/20 02:34:21;;;;;;;;;33.00;26.75;;;;;0.77;69.40;102280.59;5119794;27;45253;-81
2024/01/20 02:36:46;;;;;;;;;23.75;19.50;;;;;0.78;69.25;102287.63;5118871;27;46179;-81
2024/01/20 02:39:12;;;;;;;;;29.25;24.75;;;;;0.82;69.30;102288.53;5120109;27;52073;-80
2024/01/20 02:41:37;;;;;;;;;29.25;23.00;;;;;0.85;68.76;102276.34;5119983;27;45449;-81
2024/01/20 02:44:02;;;;;;;;;28.25;25.50;;;;;0.92;68.30;102289.53;5119692;27;45232;-80
2024/01/20 02:46:27;;;;;;;;;28.50;23.75;;;;;0.94;68.53;102291.28;5119174;27;45596;-78
2024/01/20 02:48:53;;;;;;;;;33.00;24.75;;;;;0.98;68.20;102284.31;5118900;27;60096;-80
2024/01/20 02:51:18;;;;;;;;;37.50;27.25;;;;;0.89;68.56;102274.63;5119307;27;45298;-79
2024/01/20 02:53:43;;;;;;;;;25.75;25.00;;;;;0.92;68.64;102284.28;5118907;27;45520;-80
2024/01/20 02:56:09;;;;;;;;;25.50;21.75;;;;;1.01;68.36;102295.72;5119424;27;45667;-80
2024/01/20 02:58:34;;;;;;;;;26.00;20.75;;;;;1.06;68.38;102280.94;5119609;27;45387;-80
2024/01/20 03:01:02;;;;;;;;;24.75;20.50;;;;;0.98;68.04;102277.34;5117963;27;45396;-80
2024/01/20 03:03:27;;;;;;;;;32.00;27.25;;;;;0.85;68.35;102283.31;5119407;27;45402;-80
2024/01/20 03:05:53;;;;;;;;;30.25;22.00;;;;;0.81;68.17;102292.00;5118748;27;45607;-80
2024/01/20 03:08:18;;;;;;;;;27.00;20.00;;;;;0.78;69.15;102295.47;5119426;27;45428;-80
2024/01/20 03:10:43;;;;;;;;;29.50;25.50;;;;;0.80;69.04;102296.38;5118450;27;45555;-79
2024/01/20 03:13:09;;;;;;;;;27.50;16.50;;;;;0.75;68.89;102270.97;5115793;27;45525;-81
2024/01/20 03:15:34;;;;;;;;;24.25;20.50;;;;;0.70;68.63;102262.19;5118482;27;45515;-80
2024/01/20 03:17:59;;;;;;;;;30.00;23.50;;;;;0.94;68.59;102291.28;5112489;27;46570;-81
2024/01/20 03:20:24;;;;;;;;;29.00;23.75;;;;;0.90;68.55;102286.84;5118452;27;45283;-81
2024/01/20 03:22:50;;;;;;;;;33.50;27.25;;;;;0.89;68.92;102285.97;5119482;27;45271;-80
2024/01/20 03:25:15;;;;;;;;;27.00;23.25;;;;;0.66;68.68;102258.69;5119327;27;45647;-81
2024/01/20 03:27:41;;;;;;;;;30.50;27.00;;;;;0.88;68.71;102288.59;5116988;27;46702;-82
2024/01/20 03:30:07;;;;;;;;;28.50;25.75;;;;;0.87;68.96;102287.72;5117367;27;45253;-81
2024/01/20 03:32:32;;;;;;;;;35.75;29.50;;;;;0.83;68.49;102274.56;5118403;27;45305;-82
2024/01/20 03:34:57;;;;;;;;;26.75;23.50;;;;;0.99;68.18;102299.19;5119166;27;45611;-82
2024/01/20 03:37:23;;;;;;;;;22.25;22.25;;;;;0.95;68.09;102285.19;5118519;27;45475;-82
2024/01/20 03:39:48;;;;;;;;;25.75;19.00;;;;;0.98;67.90;102285.22;5116953;27;45324;-81
2024/01/20 03:42:13;;;;;;;;;30.50;27.50;;;;;1.10;67.90;102294.94;5118758;27;45334;-81
2024/01/20 03:44:39;;;;;;;;;34.25;25.50;;;;;1.10;68.34;102287.06;5118887;27;45441;-80
2024/01/20 03:47:04;;;;;;;;;30.75;27.50;;;;;1.17;67.70;102296.72;5117839;27;54424;-80
2024/01/20 03:49:29;;;;;;;;;38.00;23.75;;;;;1.24;67.66;102292.44;5118239;27;45369;-80
2024/01/20 03:51:55;;;;;;;;;31.50;28.25;;;;;1.09;66.99;102261.75;5118684;27;45424;-81
2024/01/20 03:54:21;;;;;;;;;32.25;26.75;;;;;1.18;66.53;102288.03;5100158;27;45598;-79
2024/01/20 03:56:46;;;;;;;;;25.75;20.50;;;;;1.14;67.62;102289.72;5117773;27;45561;-80
2024/01/20 03:59:12;;;;;;;;;24.25;24.25;;;;;0.97;67.14;102291.31;5118600;27;45424;-82
2024/01/20 04:01:37;;;;;;;;;24.50;23.75;;;;;0.86;67.25;102280.72;5118839;27;45293;-82
2024/01/20 04:04:04;;;;;;;;;33.50;25.50;;;;;0.91;67.55;102283.38;5118677;27;45552;-80
2024/01/20 04:06:31;;;;;;;;;32.00;23.00;;;;;0.90;67.45;102286.84;5117495;27;46008;-82
2024/01/20 04:08:56;;;;;;;;;28.25;25.50;;;;;0.85;67.39;102280.69;5098980;27;45351;-80
2024/01/20 04:11:21;;;;;;;;;30.75;26.25;;;;;0.83;67.21;102285.03;5118185;27;57321;-81
2024/01/20 04:13:47;;;;;;;;;26.75;25.50;;;;;0.83;67.08;102296.41;5117553;27;45658;-80
2024/01/20 04:16:12;;;;;;;;;23.00;20.50;;;;;0.76;67.09;102299.78;5117637;27;50626;-82
2024/01/20 04:18:37;;;;;;;;;31.75;22.50;;;;;0.62;67.63;102305.75;5099654;27;45360;-83
2024/01/20 04:21:03;;;;;;;;;23.50;21.00;;;;;0.46;68.12;102302.94;5116969;27;45434;-79
2024/01/20 04:23:28;;;;;;;;;29.75;24.25;;;;;0.35;68.28;102291.44;5118503;27;45556;-80
2024/01/20 04:25:54;;;;;;;;;26.00;23.75;;;;;0.35;68.28;102290.56;5117210;27;64437;-81
2024/01/20 04:28:19;;;;;;;;;23.25;21.00;;;;;0.42;68.30;102310.75;5118166;27;45499;-81
2024/01/20 04:30:44;;;;;;;;;30.00;25.75;;;;;0.39;68.31;102313.28;5116850;27;45449;-81
2024/01/20 04:33:10;;;;;;;;;26.50;21.00;;;;;0.26;68.47;102291.31;5119381;27;46216;-81
2024/01/20 04:35:35;;;;;;;;;22.00;19.75;;;;;0.34;68.17;102297.53;5117461;27;45431;-81
2024/01/20 04:38:00;;;;;;;;;29.00;26.00;;;;;0.23;68.14;102291.28;5117759;27;54227;-80
2024/01/20 04:40:26;;;;;;;;;22.25;18.00;;;;;0.26;68.67;102313.16;5118533;27;45807;-80
2024/01/20 04:42:51;;;;;;;;;16.75;16.75;;;;;0.11;68.75;102291.97;5116609;27;55846;-79
2024/01/20 04:45:16;;;;;;;;;19.50;19.25;;;;;0.17;68.56;102307.78;5133088;27;46209;-81
2024/01/20 04:47:41;;;;;;;;;22.50;20.00;;;;;0.10;68.89;102294.59;5117630;27;47075;-80
2024/01/20 04:50:07;;;;;;;;;28.25;20.50;;;;;-0.01;69.07;102278.72;5117537;27;45469;-81
2024/01/20 04:52:32;;;;;;;;;21.50;19.25;;;;;-0.01;69.24;102273.50;5117832;27;45297;-81
2024/01/20 04:54:57;;;;;;;;;30.75;23.50;;;;;0.18;68.79;102292.97;5113157;27;47206;-81
2024/01/20 04:57:23;;;;;;;;;28.75;22.25;;;;;0.20;68.65;102310.44;5117719;27;45463;-81
2024/01/20 04:59:48;;;;;;;;;21.00;18.75;;;;;-0.04;69.07;102281.31;5117710;27;45329;-81
2024/01/20 05:02:14;;;;;;;;;31.75;24.25;;;;;0.16;68.74;102316.50;5117940;27;45444;-81
2024/01/20 05:04:39;;;;;;;;;24.75;20.75;;;;;0.19;68.57;102326.13;5116381;27;45499;-80
2024/01/20 05:07:05;;;;;;;;;27.50;23.00;;;;;0.07;69.22;102315.47;5116618;27;45283;-81
2024/01/20 05:09:30;;;;;;;;;27.00;22.75;;;;;0.01;69.62;102315.41;5117621;27;45230;-81
2024/01/20 05:11:55;;;;;;;;;22.00;21.00;;;;;0.06;69.49;102314.59;5117155;27;45907;-80
2024/01/20 05:14:20;;;;;;;;;29.00;21.75;;;;;0.12;69.73;102313.78;5117015;27;46009;-80
2024/01/20 05:16:46;;;;;;;;;36.00;28.25;;;;;0.12;69.79;102298.09;5117797;27;45262;-79
2024/01/20 05:19:12;;;;;;;;;28.00;26.75;;;;;0.17;69.47;102304.28;5118202;27;45226;-79
2024/01/20 05:21:38;;;;;;;;;30.50;28.50;;;;;0.12;69.58;102298.97;5117567;27;45241;-82
2024/01/20 05:24:04;;;;;;;;;32.00;29.00;;;;;0.26;69.51;102317.47;5117258;27;45368;-81
2024/01/20 05:26:30;;;;;;;;;33.75;31.75;;;;;0.35;69.05;102320.22;5118591;27;45397;-80
2024/01/20 05:28:56;;;;;;;;;28.25;25.00;;;;;0.34;70.06;102313.25;5099848;27;45474;-80
2024/01/20 05:31:23;;;;;;;;;32.25;19.00;;;;;0.35;69.52;102301.91;5117597;27;45384;-80
2024/01/20 05:33:48;;;;;;;;;35.75;26.75;;;;;0.41;69.29;102312.47;5116881;27;45447;-79
2024/01/20 05:36:14;;;;;;;;;26.25;20.25;;;;;0.45;69.02;102303.78;5117579;27;45326;-80
2024/01/20 05:38:39;;;;;;;;;23.75;19.75;;;;;0.49;68.96;102309.94;5117069;27;45293;-80
2024/01/20 05:41:07;;;;;;;;;25.75;18.75;;;;;0.38;69.37;102291.47;5117158;27;45635;-79
2024/01/20 05:43:32;;;;;;;;;24.75;19.25;;;;;0.23;69.36;102293.91;5116571;27;46210;-81
2024/01/20 05:45:58;;;;;;;;;26.25;19.00;;;;;0.36;69.97;102314.13;5117364;27;45231;-80
2024/01/20 05:48:23;;;;;;;;;25.25;21.00;;;;;0.23;69.44;102306.97;5098396;27;45309;-80
2024/01/20 05:50:48;;;;;;;;;29.50;22.75;;;;;0.29;69.59;102312.31;5116285;27;45412;-82
2024/01/20 05:53:13;;;;;;;;;27.25;22.00;;;;;0.24;69.48;102317.47;5118296;27;71176;-80
2024/01/20 05:55:39;;;;;;;;;31.75;23.50;;;;;0.28;69.40;102323.63;5120398;27;45196;-80
2024/01/20 05:58:04;;;;;;;;;19.75;17.75;;;;;0.29;69.56;102328.91;5120388;27;46399;-80
2024/01/20 06:00:30;;;;;;;;;32.75;26.25;;;;;0.36;69.35;102332.44;5114986;27;45519;-80
2024/01/20 06:02:55;;;;;;;;;22.00;19.25;;;;;0.30;69.46;102337.63;5136956;27;46169;-80
2024/01/20 06:05:21;;;;;;;;;25.25;25.00;;;;;0.28;69.41;102332.38;5115229;27;45763;-81
2024/01/20 06:07:46;;;;;;;;;22.50;19.25;;;;;0.16;69.53;102313.88;5117191;27;54106;-82
2024/01/20 06:10:11;;;;;;;;;24.75;18.00;;;;;0.17;69.56;102317.38;5120581;27;45854;-80
2024/01/20 06:12:37;;;;;;;;;14.25;14.25;;;;;0.23;69.64;102323.56;5116985;27;45491;-79
2024/01/20 06:15:02;;;;;;;;;22.50;19.75;;;;;0.32;69.69;102327.16;5120164;27;45294;-82
2024/01/20 06:17:28;;;;;;;;;27.75;23.00;;;;;0.19;69.83;102298.22;5120002;27;45341;-82
2024/01/20 06:19:54;;;;;;;;;22.50;16.50;;;;;0.41;68.84;102328.19;5119641;27;45369;-81
2024/01/20 06:22:20;;;;;;;;;28.75;21.75;;;;;0.35;69.05;102311.50;5119955;27;46152;-79
2024/01/20 06:24:45;;;;;;;;;27.00;18.25;;;;;0.41;68.83;102322.06;5135216;27;45486;-81
2024/01/20 06:27:10;;;;;;;;;26.50;21.75;;;;;0.35;68.46;102322.84;5140989;27;52641;-81
2024/01/20 06:29:42;;;;;;;;;22.25;19.25;;;;;0.38;68.40;102322.88;5122359;27;45612;-83
2024/01/20 06:32:08;;;;;;;;;25.25;17.25;;;;;0.42;68.56;102337.78;5117430;27;47484;-81
2024/01/20 06:34:33;;;;;;;;;21.00;15.75;;;;;0.33;68.63;102329.81;5119925;27;45456;-81
2024/01/20 06:36:58;;;;;;;;;27.75;20.25;;;;;0.35;69.06;102337.66;5120098;27;45437;-81
2024/01/20 06:39:24;;;;;;;;;23.00;20.50;;;;;0.37;69.06;102335.94;5118714;27;50063;-80
2024/01/20 06:41:50;;;;;;;;;28.25;24.75;;;;;0.38;68.77;102335.97;5119513;27;45445;-80
2024/01/20 06:44:16;;;;;;;;;25.25;20.75;;;;;0.33;69.15;102324.56;5131942;27;45346;-80
2024/01/20 06:46:41;;;;;;;;;23.50;21.50;;;;;0.20;68.88;102312.19;5140269;27;45318;-79
2024/01/20 06:49:06;;;;;;;;;22.00;21.75;;;;;0.31;68.87;102336.75;5137024;27;47620;-79
2024/01/20 06:51:32;;;;;;;;;25.75;19.75;;;;;0.32;68.91;102332.41;5119593;27;45974;-81
2024/01/20 06:53:57;;;;;;;;;21.75;19.75;;;;;0.34;69.06;102352.50;5118025;27;61825;-80
2024/01/20 06:56:26;;;;;;;;;27.00;20.50;;;;;0.36;69.18;102368.22;5117897;27;45461;-80
2024/01/20 06:58:53;;;;;;;;;16.25;16.25;;;;;0.25;69.40;102363.69;5119715;27;45455;-81
2024/01/20 07:01:18;;;;;;;;;27.75;20.00;;;;;0.24;68.74;102374.16;5100942;27;47270;-81
2024/01/20 07:03:44;;;;;;;;;23.25;19.00;;;;;0.31;69.53;102373.41;5117539;27;45332;-80
2024/01/20 07:06:09;;;;;;;;;28.50;20.00;;;;;0.33;69.23;102379.53;5124038;27;45426;-81
2024/01/20 07:08:34;;;;;;;;;26.75;22.00;;;;;0.25;69.21;102368.06;5122408;27;45471;-80
2024/01/20 07:11:00;;;;;;;;;21.75;19.75;;;;;0.21;69.44;102366.25;5119058;27;46055;-80
2024/01/20 07:13:25;;;;;;;;;27.50;22.00;;;;;0.32;69.50;102369.91;5133032;27;45494;-81
2024/01/20 07:15:51;;;;;;;;;29.75;25.25;;;;;0.37;68.90;102380.44;5119430;27;45211;-80
2024/01/20 07:18:16;;;;;;;;;27.00;20.00;;;;;0.29;69.19;102368.16;5099825;27;45569;-80
2024/01/20 07:20:44;;;;;;;;;27.00;21.50;;;;;0.28;69.29;102381.22;5119015;27;46095;-80
2024/01/20 07:23:10;;;;;;;;;25.75;24.00;;;;;0.28;69.55;102383.81;5118990;27;45364;-80
2024/01/20 07:25:36;;;;;;;;;22.50;14.75;;;;;0.28;69.53;102391.69;5119726;27;45475;-81
2024/01/20 07:28:03;;;;;;;;;27.00;21.50;;;;;0.21;69.88;102377.59;5118806;27;45459;-82
2024/01/20 07:30:29;;;;;;;;;28.25;21.25;;;;;0.31;69.82;102389.09;5118517;27;45415;-80
2024/01/20 07:32:58;;;;;;;;;29.25;25.25;;;;;0.36;69.58;102379.56;5118998;27;45248;-80
2024/01/20 07:35:24;;;;;;;;;23.00;18.50;;;;;0.36;69.71;102371.72;5136934;27;45502;-82
2024/01/20 07:37:49;;;;;;;;;27.00;23.00;;;;;0.31;69.56;102368.16;5129731;27;45427;-80
2024/01/20 07:40:14;;;;;;;;;23.25;21.75;;;;;0.40;69.06;102378.78;5118698;27;46232;-82
2024/01/20 07:42:40;;;;;;;;;26.25;21.00;;;;;0.48;69.04;102369.28;5118726;27;45431;-80
2024/01/20 07:45:05;;;;;;;;;26.75;21.75;;;;;0.47;68.84;102379.72;5118531;27;45911;-80
2024/01/20 07:47:31;;;;;;;;;25.75;19.75;;;;;0.45;69.19;102374.47;5118157;27;45410;-80
2024/01/20 07:49:56;;;;;;;;;25.50;19.75;;;;;0.44;68.83;102374.44;5118464;27;45437;-80
2024/01/20 07:52:21;;;;;;;;;29.75;22.75;;;;;0.48;69.08;102384.09;5119183;27;45325;-80
2024/01/20 07:54:47;;;;;;;;;28.25;24.50;;;;;0.47;68.93;102377.97;5118952;27;45389;-81
2024/01/20 07:57:12;;;;;;;;;32.75;25.25;;;;;0.44;68.89;102364.84;5122825;27;45570;-82
2024/01/20 07:59:37;;;;;;;;;25.00;23.00;;;;;0.56;68.76;102393.81;5139524;27;45427;-80
2024/01/20 08:02:03;;;;;;;;;29.75;19.00;;;;;0.38;68.44;102361.25;5120426;27;45421;-83
2024/01/20 08:04:28;;;;;;;;;25.50;22.25;;;;;0.36;68.23;102361.25;5139394;27;45336;-81
2024/01/20 08:06:54;;;;;;;;;23.00;21.50;;;;;0.39;68.39;102395.34;5116832;27;45582;-80
2024/01/20 08:09:19;;;;;;;;;23.00;18.00;;;;;0.43;68.40;102399.75;5131617;27;45441;-80
2024/01/20 08:11:45;;;;;;;;;20.00;18.50;;;;;0.41;68.68;102405.81;5117761;27;45813;-80
2024/01/20 08:14:10;;;;;;;;;17.75;16.25;;;;;0.51;68.83;102410.31;5119002;27;45518;-84
2024/01/20 08:16:36;;;;;;;;;28.00;21.75;;;;;0.37;68.65;102383.94;5123867;27;45451;-82
2024/01/20 08:19:01;;;;;;;;;36.25;20.75;;;;;0.33;68.25;102386.50;5116567;27;46086;-86
2024/01/20 08:21:26;;;;;;;;;25.25;24.00;;;;;0.36;68.89;102407.47;5117412;27;45360;-82
2024/01/20 08:23:55;;;;;;;;;20.50;17.50;;;;;0.45;68.62;102403.25;5136403;27;45281;-79
2024/01/20 08:26:20;;;;;;;;;14.25;13.00;;;;;0.54;68.66;102408.63;5116468;27;45596;-81
2024/01/20 08:28:46;;;;;;;;;26.75;24.75;;;;;0.60;68.09;102407.81;5131392;27;45763;-83
2024/01/20 08:31:11;;;;;;;;;22.50;16.25;;;;;0.39;68.23;102395.34;5122935;27;45809;-86
2024/01/20 08:33:37;;;;;;;;;25.50;17.50;;;;;0.47;68.42;102398.94;5123429;27;45537;-83
2024/01/20 08:36:02;;;;;;;;;21.00;16.50;;;;;0.54;68.13;102408.63;5133326;27;46104;-83
2024/01/20 08:38:27;;;;;;;;;26.75;20.25;;;;;0.48;68.48;102405.91;5124490;27;46333;-82
2024/01/20 08:40:53;;;;;;;;;28.50;26.00;;;;;0.52;68.07;102405.13;5126794;27;45509;-80
2024/01/20 08:43:18;;;;;;;;;27.25;21.50;;;;;0.62;67.85;102407.84;5129451;27;45410;-80
2024/01/20 08:45:44;;;;;;;;;29.50;19.75;;;;;0.36;68.58;102378.69;5122585;27;45708;-82
2024/01/20 08:48:09;;;;;;;;;26.50;22.00;;;;;0.48;68.03;102387.59;5130534;27;59908;-82
2024/01/20 08:50:35;;;;;;;;;28.00;25.00;;;;;0.53;67.85;102406.88;5122668;27;45374;-83
2024/01/20 08:53:00;;;;;;;;;26.00;22.25;;;;;0.50;67.94;102396.34;5129233;27;45424;-80
2024/01/20 08:55:25;;;;;;;;;19.00;13.75;;;;;0.64;68.11;102411.34;5130123;27;45392;-82
2024/01/20 08:57:51;;;;;;;;;32.75;24.25;;;;;0.66;68.18;102412.28;5133874;27;45435;-82
2024/01/20 09:00:16;;;;;;;;;26.00;22.75;;;;;0.53;67.95;102378.09;5120180;27;45349;-80
2024/01/20 09:02:42;;;;;;;;;33.75;29.75;;;;;0.76;67.27;102401.06;5117030;27;45407;-81
2024/01/20 09:05:09;;;;;;;;;43.00;36.00;;;;;0.89;67.67;102416.06;5135564;27;45389;-82
2024/01/20 09:07:34;;;;;;;;;35.25;32.50;;;;;0.95;68.11;102421.41;5123892;27;45415;-82
2024/01/20 09:10:02;;;;;;;;;41.00;26.75;;;;;1.06;67.85;102414.56;5133865;27;45490;-81
2024/01/20 09:12:28;;;;;;;;;40.00;33.50;;;;;1.17;67.39;102405.09;5118013;27;45395;-81
2024/01/20 09:14:54;;;;;;;;;40.75;34.75;;;;;1.11;66.87;102376.19;5125251;27;45535;-81
2024/01/20 09:17:19;;;;;;;;;54.75;39.25;;;;;1.03;67.01;102356.84;5126442;27;47169;-83
2024/01/20 09:19:45;;;;;;;;;40.75;33.75;;;;;1.34;66.47;102392.16;5121810;27;45444;-82
2024/01/20 09:22:10;;;;;;;;;39.75;29.50;;;;;1.47;66.08;102399.28;5126252;27;45469;-81
2024/01/20 09:24:35;;;;;;;;;45.75;37.25;;;;;1.52;65.72;102396.69;5124475;27;45389;-83
2024/01/20 09:27:02;;;;;;;;;42.75;31.00;;;;;1.41;66.12;102372.13;5125708;27;45402;-81
2024/01/20 09:29:28;;;;;;;;;30.25;28.75;;;;;1.37;65.83;102363.34;5129346;27;45389;-82
2024/01/20 09:31:54;;;;;;;;;38.00;30.50;;;;;1.35;65.39;102385.19;5124041;27;45322;-81
2024/01/20 09:34:19;;;;;;;;;40.00;34.00;;;;;1.35;65.76;102386.06;5137911;27;45446;-81
2024/01/20 09:36:45;;;;;;;;;51.50;37.25;;;;;1.32;66.33;102372.03;5123003;27;46364;-87
2024/01/20 09:39:12;;;;;;;;;24.50;20.25;;;;;1.40;66.43;102370.34;5123520;27;45430;-80
2024/01/20 09:41:39;;;;;;;;;30.00;26.25;;;;;1.55;66.22;102387.97;5120534;27;45573;-80
2024/01/20 09:44:06;;;;;;;;;36.50;30.25;;;;;1.69;65.56;102387.28;5105516;27;45517;-84
2024/01/20 09:46:32;;;;;;;;;36.25;26.00;;;;;1.74;65.38;102390.81;5130792;27;45471;-81
2024/01/20 09:48:59;;;;;;;;;24.50;21.25;;;;;1.80;65.02;102392.59;5144488;27;45147;-80
2024/01/20 09:51:28;;;;;;;;;36.00;27.00;;;;;1.86;64.97;102384.78;5138498;27;45283;-83
2024/01/20 09:53:58;;;;;;;;;35.25;27.00;;;;;1.87;64.95;102372.56;5123045;27;45501;-79
2024/01/20 09:56:23;;;;;;;;;37.00;27.75;;;;;1.85;64.91;102371.66;5124980;27;45353;-80
2024/01/20 09:58:50;;;;;;;;;39.75;28.00;;;;;1.85;64.95;102382.16;5145359;27;45329;-79
2024/01/20 10:01:16;;;;;;;;;39.00;26.00;;;;;1.97;64.64;102377.00;5145751;27;45404;-81
2024/01/20 10:03:43;;;;;;;;;33.75;27.50;;;;;2.10;64.75;102372.72;5131841;27;45487;-86
2024/01/20 10:06:08;;;;;;;;;29.75;27.00;;;;;2.15;64.53;102364.00;5126412;27;45435;-84
2024/01/20 10:08:34;;;;;;;;;38.25;29.75;;;;;2.26;64.02;102379.84;5130785;27;45324;-84
2024/01/20 10:11:05;;;;;;;;;33.25;29.75;;;;;2.30;63.53;102374.59;5132259;27;45278;-87
2024/01/20 10:13:31;;;;;;;;;35.50;34.00;;;;;2.42;63.52;102381.69;5128510;27;45558;-82
2024/01/20 10:15:56;;;;;;;;;35.50;28.25;;;;;2.37;63.80;102367.66;5122999;27;45433;-80
2024/01/20 10:18:22;;;;;;;;;35.25;28.50;;;;;2.69;63.64;102375.69;5126345;27;45390;-81
2024/01/20 10:20:47;;;;;;;;;37.75;29.50;;;;;2.70;63.45;102356.44;5129072;27;45789;-80
2024/01/20 10:23:13;;;;;;;;;34.00;28.25;;;;;2.75;62.30;102351.22;5129545;27;50298;-83
2024/01/20 10:25:38;;;;;;;;;30.00;28.00;;;;;2.94;62.81;102355.66;5133494;27;48923;-80
2024/01/20 10:28:05;;;;;;;;;41.75;26.75;;;;;3.17;61.81;102355.75;5123774;27;45561;-83
2024/01/20 10:30:30;;;;;;;;;31.25;30.00;;;;;3.26;61.58;102342.63;5107584;27;45394;-80
2024/01/20 10:32:58;;;;;;;;;35.75;30.00;;;;;3.50;60.47;102371.56;5113971;27;45381;-85
2024/01/20 10:35:24;;;;;;;;;34.50;30.75;;;;;3.55;59.89;102346.16;5108664;27;47567;-80
2024/01/20 10:37:50;;;;;;;;;32.25;29.75;;;;;3.71;61.38;102348.81;5123933;27;45676;-85
2024/01/20 10:40:16;;;;;;;;;35.75;26.50;;;;;3.99;58.61;102368.97;5144647;27;45582;-84
2024/01/20 10:43:03;;;;;;;;;29.75;28.50;;;;;4.15;58.69;102347.00;5146681;27;44960;-82
2024/01/20 10:45:38;;;;;;;;;30.75;30.25;;;;;4.34;58.71;102337.34;5122287;27;46596;-86
2024/01/20 10:48:18;;;;;;;;;38.75;29.75;;;;;4.66;57.18;102360.94;5129259;27;45372;-84
2024/01/20 10:50:47;;;;;;;;;35.75;31.00;;;;;4.90;56.71;102356.47;5139657;27;45385;-88
2024/01/20 10:53:13;;;;;;;;;34.50;30.50;;;;;5.15;56.00;102366.00;5132310;27;45433;-81
2024/01/20 10:55:43;;;;;;;;;32.75;27.75;;;;;5.03;55.70;102340.56;5137753;27;45408;-86
2024/01/20 10:58:10;;;;;;;;;28.00;25.00;;;;;4.83;55.29;102323.13;5125073;27;45460;-89
2024/01/20 11:00:37;;;;;;;;;35.50;31.50;;;;;4.92;54.80;102349.41;5135369;27;45334;-85
2024/01/20 11:03:05;;;;;;;;;29.50;25.75;;;;;4.94;54.73;102352.91;5108896;27;45493;-84
2024/01/20 11:05:32;;;;;;;;;30.50;25.75;;;;;5.10;54.43;102351.97;5122950;27;45447;-86
2024/01/20 11:08:03;;;;;;;;;30.75;26.75;;;;;5.28;55.09;102356.25;5143142;27;45391;-90
2024/01/20 11:10:29;;;;;;;;;37.25;25.00;;;;;5.46;53.41;102329.75;5123964;27;45322;-89